createdAt,value
2023-04-12T00:00:24.941Z,7.00
2023-04-12T00:05:48.300Z,7.00
2023-04-12T00:10:51.776Z,6.90
2023-04-12T00:15:54.517Z,6.80
2023-04-12T00:20:57.078Z,6.90
2023-04-12T00:25:59.810Z,6.90
2023-04-12T00:31:02.802Z,6.80
2023-04-12T00:36:06.076Z,6.80
2023-04-12T00:41:10.470Z,6.80
2023-04-12T00:46:13.938Z,6.80
2023-04-12T00:51:18.359Z,6.80
2023-04-12T00:56:23.684Z,6.80
2023-04-12T01:01:28.100Z,6.70
2023-04-12T01:06:58.007Z,6.70
2023-04-12T01:17:08.573Z,6.80
2023-04-12T01:22:43.332Z,6.80
2023-04-12T01:27:49.922Z,6.70
2023-04-12T01:32:56.562Z,6.70
2023-04-12T01:37:59.822Z,6.70
2023-04-12T01:43:06.703Z,6.70
2023-04-12T01:48:12.169Z,6.70
2023-04-12T01:53:32.923Z,6.60
2023-04-12T01:58:37.654Z,6.70
2023-04-12T02:03:45.116Z,6.70
2023-04-12T02:08:48.147Z,6.80
2023-04-12T02:13:50.713Z,6.80
2023-04-12T02:18:53.478Z,6.80
2023-04-12T02:23:56.299Z,6.70
2023-04-12T02:28:59.070Z,6.80
2023-04-12T02:34:01.603Z,6.80
2023-04-12T02:39:05.332Z,6.90
2023-04-12T02:44:10.523Z,6.80
2023-04-12T02:49:16.908Z,6.80
2023-04-12T02:54:20.030Z,6.90
2023-04-12T02:59:31.402Z,6.80
2023-04-12T03:04:51.065Z,6.80
2023-04-12T03:10:00.165Z,6.90
2023-04-12T03:15:03.099Z,6.90
2023-04-12T03:20:09.986Z,6.80
2023-04-12T03:25:18.725Z,6.90
2023-04-12T03:30:29.476Z,6.70
2023-04-12T03:35:33.890Z,6.70
2023-04-12T03:40:37.325Z,6.80
2023-04-12T03:45:40.235Z,6.80
2023-04-12T03:50:46.251Z,6.80
2023-04-12T03:55:56.540Z,6.90
2023-04-12T04:01:06.060Z,6.90
2023-04-12T04:06:11.411Z,6.80
2023-04-12T04:11:14.669Z,6.90
2023-04-12T04:16:21.068Z,6.90
2023-04-12T04:21:26.636Z,6.90
2023-04-12T04:26:33.616Z,6.90
2023-04-12T04:31:58.945Z,6.90
2023-04-12T04:37:02.532Z,7.00
2023-04-12T04:42:06.713Z,7.00
2023-04-12T04:47:15.055Z,7.00
2023-04-12T04:52:18.499Z,7.10
2023-04-12T04:57:22.459Z,7.00
2023-04-12T05:02:26.219Z,7.00
2023-04-12T05:07:28.982Z,7.00
2023-04-12T05:12:31.650Z,7.00
2023-04-12T05:17:34.657Z,6.90
2023-04-12T05:22:37.260Z,7.00
2023-04-12T05:27:40.235Z,7.20
2023-04-12T05:32:45.308Z,7.20
2023-04-12T05:37:49.580Z,7.20
2023-04-12T05:42:52.204Z,7.30
2023-04-12T05:47:55.905Z,7.40
2023-04-12T05:53:01.435Z,7.30
2023-04-12T05:58:06.908Z,7.30
2023-04-12T06:03:11.635Z,7.30
2023-04-12T06:08:15.269Z,7.40
2023-04-12T06:13:17.819Z,7.50
2023-04-12T06:18:21.504Z,7.70
2023-04-12T06:23:24.022Z,7.70
2023-04-12T06:28:28.098Z,7.70
2023-04-12T06:33:33.429Z,7.70
2023-04-12T06:38:37.140Z,7.90
2023-04-12T06:43:39.672Z,7.90
2023-04-12T06:48:42.625Z,8.00
2023-04-12T06:53:45.105Z,7.90
2023-04-12T06:58:49.895Z,8.10
2023-04-12T07:03:52.738Z,8.50
2023-04-12T07:08:55.644Z,9.00
2023-04-12T07:14:01.152Z,9.30
2023-04-12T07:19:03.923Z,9.50
2023-04-12T07:24:06.675Z,9.60
2023-04-12T07:29:09.123Z,9.90
2023-04-12T07:34:13.076Z,10.10
2023-04-12T07:39:15.793Z,10.00
2023-04-12T07:44:18.747Z,10.10
2023-04-12T07:49:21.241Z,10.00
2023-04-12T07:54:26.906Z,10.00
2023-04-12T07:59:30.632Z,10.10
2023-04-12T08:04:33.206Z,10.30
2023-04-12T08:09:36.036Z,10.40
2023-04-12T08:14:40.477Z,10.10
2023-04-12T08:19:43.521Z,10.40
2023-04-12T08:24:46.424Z,11.00
2023-04-12T08:29:49.136Z,11.10
2023-04-12T08:34:52.287Z,11.20
2023-04-12T08:39:54.888Z,11.20
2023-04-12T08:44:59.340Z,10.90
2023-04-12T08:50:02.946Z,10.60
2023-04-12T08:55:07.268Z,10.30
2023-04-12T09:00:11.013Z,10.30
2023-04-12T09:05:14.661Z,10.10
2023-04-12T09:10:35.178Z,10.60
2023-04-12T09:15:49.248Z,11.00
2023-04-12T09:21:05.704Z,11.10
2023-04-12T09:26:09.436Z,11.30
2023-04-12T09:31:17.502Z,11.80
2023-04-12T09:36:20.446Z,12.30
2023-04-12T09:41:26.861Z,12.90
2023-04-12T09:46:30.170Z,13.20
2023-04-12T09:51:34.277Z,13.40
2023-04-12T09:56:40.453Z,12.70
2023-04-12T10:01:43.945Z,12.20
2023-04-12T10:06:47.080Z,11.40
2023-04-12T10:11:51.938Z,10.90
2023-04-12T10:16:57.473Z,11.10
2023-04-12T10:22:01.568Z,10.90
2023-04-12T10:27:05.598Z,11.00
2023-04-12T10:32:23.292Z,11.30
2023-04-12T10:37:45.354Z,12.10
2023-04-12T10:42:47.858Z,12.90
2023-04-12T10:47:50.528Z,13.00
2023-04-12T10:53:19.814Z,12.60
2023-04-12T10:58:48.503Z,12.20
2023-04-12T11:04:15.356Z,11.90
2023-04-12T11:09:34.204Z,11.80
2023-04-12T11:14:43.122Z,12.00
2023-04-12T11:19:55.659Z,11.80
2023-04-12T11:25:03.430Z,11.70
2023-04-12T11:30:14.093Z,11.80
2023-04-12T11:35:24.279Z,11.80
2023-04-12T11:40:27.067Z,12.10
2023-04-12T11:45:32.032Z,12.20
2023-04-12T11:50:37.584Z,12.40
2023-04-12T11:55:41.577Z,12.50
2023-04-12T12:00:46.080Z,12.00
2023-04-12T12:05:49.374Z,12.20
2023-04-12T12:11:04.026Z,12.40
2023-04-12T12:16:09.966Z,11.90
2023-04-12T12:21:14.970Z,11.90
2023-04-12T12:26:25.161Z,12.10
2023-04-12T12:31:28.913Z,12.20
2023-04-12T12:36:34.273Z,12.10
2023-04-12T12:41:38.033Z,12.00
2023-04-12T12:46:53.409Z,11.60
2023-04-12T12:51:59.839Z,11.30
2023-04-12T12:57:03.601Z,11.30
2023-04-12T13:02:07.436Z,11.20
2023-04-12T13:07:10.409Z,11.40
2023-04-12T13:12:15.868Z,11.90
2023-04-12T13:17:18.390Z,12.10
2023-04-12T13:22:21.427Z,12.50
2023-04-12T13:27:24.028Z,12.80
2023-04-12T13:32:27.475Z,13.00
2023-04-12T13:37:30.156Z,12.70
2023-04-12T13:42:33.255Z,12.70
2023-04-12T13:47:36.498Z,12.60
2023-04-12T13:52:39.350Z,12.40
2023-04-12T13:57:42.186Z,12.20
2023-04-12T14:02:45.049Z,12.00
2023-04-12T14:07:49.880Z,12.30
2023-04-12T14:12:52.535Z,12.20
2023-04-12T14:17:55.334Z,12.40
2023-04-12T14:22:58.538Z,12.40
2023-04-12T14:28:01.473Z,12.80
2023-04-12T14:33:04.455Z,13.20
2023-04-12T14:38:09.049Z,13.50
2023-04-12T14:43:11.603Z,13.60
2023-04-12T14:48:14.262Z,13.50
2023-04-12T14:53:18.718Z,12.10
2023-04-12T14:58:21.281Z,13.40
2023-04-12T15:03:24.211Z,13.40
2023-04-12T15:08:29.041Z,13.20
2023-04-12T15:13:34.375Z,12.60
2023-04-12T15:18:39.391Z,12.20
2023-04-12T15:23:42.080Z,12.10
2023-04-12T15:28:45.026Z,12.10
2023-04-12T15:33:49.631Z,12.10
2023-04-12T15:38:52.154Z,12.10
2023-04-12T15:43:54.834Z,12.20
2023-04-12T15:49:00.189Z,12.10
2023-04-12T15:54:02.853Z,12.00
2023-04-12T15:59:07.234Z,13.50
2023-04-12T16:04:10.149Z,11.70
2023-04-12T16:09:12.707Z,11.40
2023-04-12T16:14:15.689Z,11.10
2023-04-12T16:19:18.759Z,10.90
2023-04-12T16:24:21.677Z,10.60
2023-04-12T16:29:24.549Z,10.30
2023-04-12T16:34:27.081Z,10.00
2023-04-12T16:39:30.097Z,9.90
2023-04-12T16:44:33.222Z,9.80
2023-04-12T16:49:38.395Z,9.50
2023-04-12T16:54:41.820Z,9.30
2023-04-12T16:59:45.964Z,9.00
2023-04-12T17:04:48.916Z,8.60
2023-04-12T17:09:51.471Z,8.40
2023-04-12T17:14:54.008Z,8.00
2023-04-12T17:19:56.662Z,8.00
2023-04-12T17:24:59.405Z,7.70
2023-04-12T17:30:03.404Z,7.40
2023-04-12T17:35:07.109Z,7.20
2023-04-12T17:40:13.065Z,7.00
2023-04-12T17:45:16.224Z,6.80
2023-04-12T17:50:19.048Z,6.20
2023-04-12T17:55:23.658Z,6.10
2023-04-12T18:00:26.887Z,6.30
2023-04-12T18:05:29.831Z,6.10
2023-04-12T18:10:32.715Z,6.10
2023-04-12T18:15:35.809Z,5.90
2023-04-12T18:20:38.696Z,5.80
2023-04-12T18:25:44.186Z,5.80
2023-04-12T18:30:48.037Z,5.90
2023-04-12T18:35:51.376Z,5.90
2023-04-12T18:40:54.631Z,5.90
2023-04-12T18:45:57.440Z,5.80
2023-04-12T18:51:00.285Z,5.90
2023-04-12T18:56:28.822Z,5.30
2023-04-12T19:01:35.929Z,5.10
2023-04-12T19:06:42.225Z,5.00
2023-04-12T19:11:45.772Z,5.20
2023-04-12T19:16:48.692Z,5.10
2023-04-12T19:21:51.623Z,4.80
2023-04-12T19:32:00.865Z,5.00
2023-04-12T19:37:03.745Z,4.90
2023-04-12T19:42:07.416Z,4.70
2023-04-12T19:47:10.384Z,4.40
2023-04-12T19:52:15.404Z,4.30
2023-04-12T19:57:18.215Z,4.30
2023-04-12T20:17:31.628Z,4.10
2023-04-12T20:22:35.543Z,3.90
2023-04-12T20:27:39.353Z,3.80
2023-04-12T20:32:42.085Z,3.80
2023-04-12T20:58:05.355Z,2.30
2023-04-12T21:08:13.642Z,2.00
2023-04-12T21:18:24.500Z,1.90
2023-04-12T21:23:29.513Z,2.10
2023-04-12T21:28:32.327Z,2.60
2023-04-12T21:33:38.370Z,2.70
2023-04-12T21:38:41.314Z,3.00
2023-04-12T21:43:47.500Z,3.10
2023-04-12T21:48:50.181Z,3.40
2023-04-12T21:53:52.783Z,3.70
2023-04-12T21:58:59.626Z,3.50
2023-04-12T22:04:02.449Z,3.50
2023-04-12T22:09:05.441Z,3.40
2023-04-12T22:14:08.112Z,3.50
2023-04-12T22:19:10.894Z,2.80
2023-04-12T22:24:13.951Z,2.60
2023-04-12T22:29:17.695Z,2.30
2023-04-12T22:34:20.278Z,1.90
2023-04-12T22:39:22.843Z,1.60
2023-04-12T22:44:29.141Z,1.80
2023-04-12T22:49:32.140Z,2.10
2023-04-12T22:54:34.792Z,2.50
2023-04-12T22:59:37.386Z,2.70
2023-04-12T23:04:40.465Z,2.70
2023-04-12T23:09:45.211Z,2.90
2023-04-12T23:14:48.397Z,2.90
2023-04-12T23:19:51.893Z,3.00
2023-04-12T23:24:54.407Z,3.40
2023-04-12T23:29:56.928Z,3.40
2023-04-12T23:35:02.285Z,3.50
2023-04-12T23:40:10.774Z,3.50
2023-04-12T23:45:13.575Z,3.70
2023-04-12T23:50:16.161Z,3.80
2023-04-12T23:55:18.769Z,3.80
